createdAt,value
2023-01-08T00:01:24.290Z,100254.09
2023-01-08T00:03:51.538Z,100249.81
2023-01-08T00:06:21.711Z,100248.06
2023-01-08T00:08:49.412Z,100246.31
2023-01-08T00:11:17.135Z,100235.19
2023-01-08T00:13:44.206Z,100230.88
2023-01-08T00:16:14.652Z,100239.38
2023-01-08T00:18:41.873Z,100229.09
2023-01-08T00:21:09.295Z,100232.53
2023-01-08T00:23:36.936Z,100218.75
2023-01-08T00:26:06.787Z,100230.75
2023-01-08T00:28:34.957Z,100234.16
2023-01-08T00:31:09.244Z,100222.16
2023-01-08T00:33:37.267Z,100221.28
2023-01-08T00:36:15.306Z,100217.81
2023-01-08T00:38:43.467Z,100218.69
2023-01-08T00:41:11.398Z,100216.94
2023-01-08T00:43:38.562Z,100216.88
2023-01-08T00:46:06.129Z,100216.81
2023-01-08T00:48:39.000Z,100220.25
2023-01-08T00:51:08.473Z,100217.66
2023-01-08T00:53:36.074Z,100216.81
2023-01-08T00:56:05.372Z,100215.06
2023-01-08T00:58:33.127Z,100212.47
2023-01-08T01:01:00.507Z,100213.31
2023-01-08T01:03:28.174Z,100222.69
2023-01-08T01:06:02.958Z,100209.84
2023-01-08T01:08:30.223Z,100206.34
2023-01-08T01:10:57.303Z,100213.22
2023-01-08T01:13:24.345Z,100208.91
2023-01-08T01:15:59.369Z,100201.19
2023-01-08T01:18:27.355Z,100195.19
2023-01-08T01:20:54.809Z,100192.63
2023-01-08T01:23:21.997Z,100190.88
2023-01-08T01:25:49.278Z,100190.81
2023-01-08T01:28:16.656Z,100190.81
2023-01-08T01:30:43.682Z,100182.28
2023-01-08T01:33:10.850Z,100189.06
2023-01-08T01:35:37.923Z,100183.97
2023-01-08T01:38:05.012Z,100183.09
2023-01-08T01:40:32.114Z,100172.88
2023-01-08T01:42:59.164Z,100177.97
2023-01-08T01:45:31.539Z,100177.09
2023-01-08T01:48:10.628Z,100168.53
2023-01-08T01:50:44.791Z,100166.81
2023-01-08T01:53:19.925Z,100169.31
2023-01-08T01:55:48.059Z,100160.75
2023-01-08T01:58:23.382Z,100159.84
2023-01-08T02:00:51.722Z,100145.28
2023-01-08T02:03:23.195Z,100151.25
2023-01-08T02:05:52.939Z,100152.09
2023-01-08T02:08:36.449Z,100139.31
2023-01-08T02:11:08.112Z,100133.34
2023-01-08T02:13:41.321Z,100138.50
2023-01-08T02:16:25.560Z,100139.31
2023-01-08T02:19:01.617Z,100137.50
2023-01-08T02:22:02.237Z,100132.41
2023-01-08T02:24:47.427Z,100127.28
2023-01-08T02:27:17.530Z,100120.38
2023-01-08T02:29:44.770Z,100127.25
2023-01-08T02:32:11.993Z,100126.38
2023-01-08T02:34:39.095Z,100113.47
2023-01-08T02:37:06.220Z,100127.16
2023-01-08T02:39:48.361Z,100125.47
2023-01-08T02:42:51.608Z,100130.56
2023-01-08T02:45:30.607Z,100135.66
2023-01-08T02:48:12.357Z,100124.53
2023-01-08T02:50:46.688Z,100114.28
2023-01-08T02:53:19.336Z,100126.25
2023-01-08T02:55:53.007Z,100121.09
2023-01-08T02:58:21.959Z,100123.59
2023-01-08T03:00:50.773Z,100123.59
2023-01-08T03:03:28.472Z,100128.72
2023-01-08T03:06:02.658Z,100121.81
2023-01-08T03:08:30.403Z,100124.38
2023-01-08T03:11:05.751Z,100114.97
2023-01-08T03:13:40.282Z,100111.50
2023-01-08T03:16:15.450Z,100107.22
2023-01-08T03:18:49.542Z,100106.31
2023-01-08T03:21:18.226Z,100096.88
2023-01-08T03:23:47.329Z,100063.34
2023-01-08T03:26:18.716Z,100075.50
2023-01-08T03:28:50.815Z,100072.16
2023-01-08T03:31:19.735Z,100058.38
2023-01-08T03:33:48.028Z,100074.69
2023-01-08T03:36:21.862Z,100073.72
2023-01-08T03:38:57.166Z,100087.44
2023-01-08T03:41:27.962Z,100079.78
2023-01-08T03:43:55.032Z,100066.94
2023-01-08T03:46:35.848Z,100065.25
2023-01-08T03:49:07.031Z,100078.94
2023-01-08T03:51:42.134Z,100065.34
2023-01-08T03:54:13.901Z,100069.59
2023-01-08T03:56:41.417Z,100067.03
2023-01-08T03:59:09.050Z,100068.78
2023-01-08T04:01:36.178Z,100062.84
2023-01-08T04:04:03.424Z,100062.81
2023-01-08T04:06:30.500Z,100059.41
2023-01-08T04:08:57.665Z,100048.25
2023-01-08T04:11:24.932Z,100045.69
2023-01-08T04:13:52.020Z,100037.16
2023-01-08T04:16:23.028Z,100041.44
2023-01-08T04:18:50.113Z,100044.00
2023-01-08T04:21:17.229Z,100048.19
2023-01-08T04:23:44.406Z,100057.63
2023-01-08T04:26:11.598Z,100038.78
2023-01-08T04:28:38.651Z,100037.88
2023-01-08T04:31:07.572Z,100040.53
2023-01-08T04:33:35.258Z,100019.16
2023-01-08T04:36:03.571Z,100017.47
2023-01-08T04:38:30.822Z,100014.00
2023-01-08T04:41:01.882Z,100017.44
2023-01-08T04:43:29.939Z,99995.25
2023-01-08T04:46:01.203Z,100000.41
2023-01-08T04:48:29.513Z,100006.38
2023-01-08T04:51:01.985Z,100019.09
2023-01-08T04:53:31.205Z,100016.59
2023-01-08T04:56:04.534Z,100008.03
2023-01-08T04:58:31.735Z,99993.53
2023-01-08T05:00:58.829Z,99974.84
2023-01-08T05:03:26.109Z,99978.13
2023-01-08T05:05:53.244Z,99981.56
2023-01-08T05:08:20.262Z,99969.59
2023-01-08T05:10:47.322Z,99973.88
2023-01-08T05:13:14.405Z,99961.88
2023-01-08T05:15:41.593Z,99971.34
2023-01-08T05:18:10.076Z,99986.63
2023-01-08T05:20:37.124Z,99972.91
2023-01-08T05:23:04.411Z,99987.50
2023-01-08T05:25:31.521Z,99986.63
2023-01-08T05:27:58.486Z,99972.97
2023-01-08T05:30:25.514Z,99946.41
2023-01-08T05:32:52.633Z,99945.59
2023-01-08T05:35:19.692Z,99950.81
2023-01-08T05:37:46.851Z,99943.91
2023-01-08T05:40:13.887Z,99957.53
2023-01-08T05:42:40.985Z,99952.38
2023-01-08T05:45:08.951Z,99948.09
2023-01-08T05:47:36.844Z,99962.47
2023-01-08T05:50:04.173Z,99960.81
2023-01-08T05:52:31.145Z,99964.28
2023-01-08T05:55:00.364Z,99966.81
2023-01-08T05:57:27.400Z,99972.75
2023-01-08T05:59:54.642Z,99976.19
2023-01-08T06:02:21.749Z,99971.09
2023-01-08T06:04:48.902Z,99965.13
2023-01-08T06:07:16.001Z,99971.09
2023-01-08T06:09:43.136Z,99975.38
2023-01-08T06:12:10.229Z,99981.34
2023-01-08T06:14:37.268Z,99984.75
2023-01-08T06:17:04.466Z,99985.56
2023-01-08T06:19:31.579Z,99977.88
2023-01-08T06:21:58.641Z,99976.16
2023-01-08T06:24:25.743Z,99960.78
2023-01-08T06:26:52.809Z,99979.56
2023-01-08T06:29:19.937Z,99977.81
2023-01-08T06:31:46.999Z,99976.09
2023-01-08T06:34:14.115Z,99967.56
2023-01-08T06:36:41.317Z,99962.44
2023-01-08T06:39:08.799Z,99950.56
2023-01-08T06:41:35.934Z,99962.47
2023-01-08T06:44:03.084Z,99960.72
2023-01-08T06:46:30.191Z,99952.13
2023-01-08T06:48:57.408Z,99957.28
2023-01-08T06:51:24.410Z,99964.09
2023-01-08T06:53:51.594Z,99958.94
2023-01-08T06:56:18.673Z,99958.94
2023-01-08T06:58:45.804Z,99950.38
2023-01-08T07:01:15.867Z,99957.19
2023-01-08T07:03:43.280Z,99952.03
2023-01-08T07:06:16.827Z,99940.06
2023-01-08T07:08:44.818Z,99940.03
2023-01-08T07:11:12.124Z,99930.63
2023-01-08T07:13:39.553Z,99941.75
2023-01-08T07:16:11.334Z,99936.59
2023-01-08T07:18:39.014Z,99934.81
2023-01-08T07:21:07.953Z,99934.03
2023-01-08T07:23:36.073Z,99934.06
2023-01-08T07:26:04.410Z,99924.72
2023-01-08T07:28:31.662Z,99921.16
2023-01-08T07:31:02.583Z,99933.97
2023-01-08T07:33:29.677Z,99927.22
2023-01-08T07:35:57.036Z,99919.56
2023-01-08T07:38:24.465Z,99928.91
2023-01-08T07:40:51.557Z,99912.66
2023-01-08T07:43:19.243Z,99917.91
2023-01-08T07:45:46.433Z,99919.59
2023-01-08T07:48:16.785Z,99914.50
2023-01-08T07:50:44.697Z,99911.03
2023-01-08T07:53:13.823Z,99917.84
2023-01-08T07:55:40.933Z,99914.41
2023-01-08T07:58:12.813Z,99907.56
2023-01-08T08:00:40.343Z,99911.00
2023-01-08T08:03:11.757Z,99912.75
2023-01-08T08:05:39.170Z,99909.28
2023-01-08T08:08:11.845Z,99904.19
2023-01-08T08:10:40.505Z,99900.78
2023-01-08T08:13:08.060Z,99900.78
2023-01-08T08:15:36.255Z,99907.63
2023-01-08T08:18:03.801Z,99904.22
2023-01-08T08:20:31.312Z,99916.28
2023-01-08T08:23:06.652Z,99906.09
2023-01-08T08:25:34.067Z,99910.38
2023-01-08T08:28:02.522Z,99906.19
2023-01-08T08:30:31.722Z,99902.78
2023-01-08T08:33:01.417Z,99901.13
2023-01-08T08:35:29.672Z,99893.50
2023-01-08T08:37:57.595Z,99903.84
2023-01-08T08:40:25.719Z,99902.19
2023-01-08T08:43:00.855Z,99903.09
2023-01-08T08:45:28.804Z,99899.75
2023-01-08T08:47:56.076Z,99889.50
2023-01-08T08:50:23.900Z,99892.94
2023-01-08T08:52:51.061Z,99881.84
2023-01-08T08:55:18.502Z,99894.69
2023-01-08T08:57:46.932Z,99887.81
2023-01-08T09:00:15.411Z,99889.59
2023-01-08T09:02:42.860Z,99880.31
2023-01-08T09:05:10.649Z,99872.72
2023-01-08T09:07:37.744Z,99871.03
2023-01-08T09:10:05.516Z,99874.50
2023-01-08T09:12:32.629Z,99853.97
2023-01-08T09:14:59.717Z,99855.75
2023-01-08T09:17:26.838Z,99854.06
2023-01-08T09:19:53.956Z,99854.13
2023-01-08T09:22:21.356Z,99866.03
2023-01-08T09:24:48.651Z,99857.56
2023-01-08T09:27:16.241Z,99857.59
2023-01-08T09:29:43.403Z,99867.06
2023-01-08T09:32:10.673Z,99867.94
2023-01-08T09:34:38.473Z,99868.88
2023-01-08T09:37:06.258Z,99863.78
2023-01-08T09:39:34.054Z,99856.16
2023-01-08T09:42:06.212Z,99857.06
2023-01-08T09:44:40.703Z,99862.22
2023-01-08T09:47:22.662Z,99863.91
2023-01-08T09:49:50.188Z,99846.91
2023-01-08T09:52:17.348Z,99846.09
2023-01-08T09:54:44.555Z,99852.91
2023-01-08T09:57:18.045Z,99849.56
2023-01-08T09:59:48.186Z,99847.88
2023-01-08T10:02:21.325Z,99846.19
2023-01-08T10:05:00.394Z,99839.38
2023-01-08T10:07:30.663Z,99839.41
2023-01-08T10:09:57.608Z,99841.13
2023-01-08T10:12:34.309Z,99833.44
2023-01-08T10:15:08.221Z,99837.78
2023-01-08T10:17:39.246Z,99842.91
2023-01-08T10:20:16.679Z,99839.53
2023-01-08T10:22:44.884Z,99832.69
2023-01-08T10:25:20.567Z,99819.97
2023-01-08T10:27:51.676Z,99824.28
2023-01-08T10:30:24.482Z,99823.47
2023-01-08T10:32:56.503Z,99811.50
2023-01-08T10:35:33.738Z,99808.94
2023-01-08T10:38:01.832Z,99811.56
2023-01-08T10:40:46.048Z,99807.28
2023-01-08T10:43:22.735Z,99817.53
2023-01-08T10:46:23.638Z,99805.59
2023-01-08T10:49:01.821Z,99799.66
2023-01-08T10:51:31.331Z,99786.88
2023-01-08T10:54:24.149Z,99769.81
2023-01-08T10:56:51.292Z,99765.56
2023-01-08T10:59:23.152Z,99751.06
2023-01-08T11:01:52.752Z,99742.53
2023-01-08T11:04:42.248Z,99755.38
2023-01-08T11:07:20.955Z,99778.47
2023-01-08T11:09:50.361Z,99761.34
2023-01-08T11:12:41.016Z,99759.69
2023-01-08T11:15:28.356Z,99769.13
2023-01-08T11:17:55.570Z,99767.44
2023-01-08T11:20:31.154Z,99756.31
2023-01-08T11:23:25.365Z,99764.91
2023-01-08T11:26:11.240Z,99758.94
2023-01-08T11:29:05.710Z,99770.06
2023-01-08T11:32:15.534Z,99763.25
2023-01-08T11:35:04.824Z,99764.94
2023-01-08T11:37:39.249Z,99769.22
2023-01-08T11:40:17.554Z,99751.34
2023-01-08T11:42:56.920Z,99751.34
2023-01-08T11:46:05.111Z,99742.88
2023-01-08T11:48:47.048Z,99730.94
2023-01-08T11:51:22.871Z,99734.34
2023-01-08T11:54:19.124Z,99735.22
2023-01-08T11:56:48.803Z,99731.84
2023-01-08T11:59:54.876Z,99727.59
2023-01-08T12:02:40.611Z,99717.34
2023-01-08T12:05:27.835Z,99700.22
2023-01-08T12:08:13.157Z,99713.09
2023-01-08T12:11:06.128Z,99709.66
2023-01-08T12:13:44.085Z,99712.25
2023-01-08T12:16:30.168Z,99706.31
2023-01-08T12:19:15.152Z,99696.91
2023-01-08T12:22:09.292Z,99703.75
2023-01-08T12:24:39.113Z,99692.63
2023-01-08T12:27:55.416Z,99690.03
2023-01-08T12:30:34.608Z,99697.75
2023-01-08T12:33:05.885Z,99693.47
2023-01-08T12:35:44.874Z,99690.06
2023-01-08T12:38:18.739Z,99681.47
2023-01-08T12:40:51.952Z,99688.34
2023-01-08T12:43:51.668Z,99690.06
2023-01-08T12:46:19.993Z,99670.38
2023-01-08T12:48:51.746Z,99660.97
2023-01-08T12:51:28.845Z,99661.84
2023-01-08T12:53:59.095Z,99654.13
2023-01-08T12:56:54.370Z,99657.56
2023-01-08T12:59:47.084Z,99663.53
2023-01-08T13:02:32.524Z,99656.72
2023-01-08T13:05:19.210Z,99648.16
2023-01-08T13:07:48.539Z,99655.81
2023-01-08T13:10:41.809Z,99641.31
2023-01-08T13:13:29.046Z,99635.31
2023-01-08T13:16:09.907Z,99621.63
2023-01-08T13:18:37.818Z,99637.00
2023-01-08T13:21:07.278Z,99643.00
2023-01-08T13:23:35.907Z,99640.44
2023-01-08T13:26:06.259Z,99631.88
2023-01-08T13:28:44.988Z,99633.59
2023-01-08T13:31:21.233Z,99640.44
2023-01-08T13:33:52.857Z,99633.59
2023-01-08T13:36:28.855Z,99635.31
2023-01-08T13:39:06.819Z,99642.13
2023-01-08T13:41:37.602Z,99640.44
2023-01-08T13:44:07.547Z,99644.72
2023-01-08T13:46:38.098Z,99639.56
2023-01-08T13:49:10.991Z,99638.72
2023-01-08T13:51:46.450Z,99639.56
2023-01-08T13:54:13.673Z,99648.13
2023-01-08T13:56:43.221Z,99637.88
2023-01-08T13:59:39.266Z,99648.13
2023-01-08T14:02:25.421Z,99642.13
2023-01-08T14:04:53.848Z,99636.16
2023-01-08T14:07:21.588Z,99640.44
2023-01-08T14:09:48.816Z,99636.16
2023-01-08T14:12:22.314Z,99633.59
2023-01-08T14:14:54.750Z,99628.44
2023-01-08T14:17:26.055Z,99630.16
2023-01-08T14:19:53.268Z,99629.31
2023-01-08T14:22:26.596Z,99619.88
2023-01-08T14:24:56.763Z,99624.16
2023-01-08T14:27:30.243Z,99616.47
2023-01-08T14:29:58.071Z,99621.63
2023-01-08T14:32:29.471Z,99626.75
2023-01-08T14:35:01.037Z,99622.47
2023-01-08T14:37:28.137Z,99613.94
2023-01-08T14:39:55.442Z,99618.19
2023-01-08T14:42:47.485Z,99619.91
2023-01-08T14:45:25.020Z,99611.38
2023-01-08T14:48:15.609Z,99597.69
2023-01-08T14:51:04.771Z,99618.19
2023-01-08T14:53:35.616Z,99604.50
2023-01-08T14:56:04.773Z,99604.50
2023-01-08T14:58:38.259Z,99596.81
2023-01-08T15:01:16.515Z,99597.69
2023-01-08T15:03:49.013Z,99591.69
2023-01-08T15:06:27.488Z,99580.56
2023-01-08T15:08:55.361Z,99575.44
2023-01-08T15:11:31.475Z,99569.44
2023-01-08T15:13:59.085Z,99578.88
2023-01-08T15:16:32.385Z,99566.88
2023-01-08T15:19:08.510Z,99584.00
2023-01-08T15:21:36.669Z,99573.75
2023-01-08T15:24:06.009Z,99580.56
2023-01-08T15:26:33.887Z,99580.56
2023-01-08T15:29:05.071Z,99577.13
2023-01-08T15:31:41.148Z,99583.13
2023-01-08T15:34:09.005Z,99572.88
2023-01-08T15:36:36.125Z,99586.53
2023-01-08T15:39:03.894Z,99582.28
2023-01-08T15:41:57.803Z,99563.47
2023-01-08T15:44:26.023Z,99580.53
2023-01-08T15:46:53.232Z,99572.88
2023-01-08T15:49:20.806Z,99577.13
2023-01-08T15:51:49.894Z,99584.81
2023-01-08T15:54:17.155Z,99580.53
2023-01-08T15:56:44.444Z,99585.66
2023-01-08T15:59:12.382Z,99591.63
2023-01-08T16:01:39.586Z,99584.81
2023-01-08T16:04:06.849Z,99583.97
2023-01-08T16:06:34.311Z,99586.53
2023-01-08T16:09:01.555Z,99582.22
2023-01-08T16:11:28.796Z,99575.41
2023-01-08T16:13:55.887Z,99582.22
2023-01-08T16:16:23.052Z,99580.53
2023-01-08T16:18:50.193Z,99587.34
2023-01-08T16:21:17.266Z,99573.66
2023-01-08T16:23:44.459Z,99572.81
2023-01-08T16:26:14.443Z,99580.50
2023-01-08T16:28:42.242Z,99577.94
2023-01-08T16:31:10.334Z,99584.78
2023-01-08T16:33:37.706Z,99573.66
2023-01-08T16:36:07.212Z,99575.38
2023-01-08T16:38:35.578Z,99563.41
2023-01-08T16:41:03.175Z,99558.28
2023-01-08T16:43:31.093Z,99557.44
2023-01-08T16:46:03.425Z,99561.72
2023-01-08T16:48:31.071Z,99561.72
2023-01-08T16:51:04.939Z,99550.63
2023-01-08T16:53:32.514Z,99544.63
2023-01-08T16:56:00.353Z,99536.09
2023-01-08T16:58:30.103Z,99536.09
2023-01-08T17:00:59.292Z,99536.09
2023-01-08T17:03:26.583Z,99542.06
2023-01-08T17:05:53.978Z,99541.22
2023-01-08T17:08:21.130Z,99542.91
2023-01-08T17:10:48.761Z,99540.38
2023-01-08T17:13:15.803Z,99539.50
2023-01-08T17:15:42.868Z,99533.50
2023-01-08T17:18:09.929Z,99535.22
2023-01-08T17:20:37.164Z,99530.09
2023-01-08T17:23:04.295Z,99538.63
2023-01-08T17:25:31.353Z,99543.75
2023-01-08T17:27:58.462Z,99549.75
2023-01-08T17:30:25.581Z,99554.88
2023-01-08T17:32:52.683Z,99545.50
2023-01-08T17:35:19.863Z,99536.94
2023-01-08T17:37:47.156Z,99536.09
2023-01-08T17:40:14.313Z,99541.22
2023-01-08T17:42:41.461Z,99539.50
2023-01-08T17:45:09.139Z,99542.91
2023-01-08T17:47:37.512Z,99548.03
2023-01-08T17:50:06.043Z,99553.16
2023-01-08T17:52:33.303Z,99544.59
2023-01-08T17:55:00.465Z,99533.50
2023-01-08T17:57:31.676Z,99530.94
2023-01-08T18:00:00.293Z,99536.06
2023-01-08T18:02:28.069Z,99524.09
2023-01-08T18:04:55.188Z,99539.47
2023-01-08T18:07:24.065Z,99530.91
2023-01-08T18:09:54.516Z,99525.81
2023-01-08T18:12:21.704Z,99536.06
2023-01-08T18:14:48.830Z,99530.91
2023-01-08T18:17:16.083Z,99527.50
2023-01-08T18:19:43.195Z,99512.13
2023-01-08T18:22:11.744Z,99512.13
2023-01-08T18:24:38.810Z,99501.88
2023-01-08T18:27:05.968Z,99512.13
2023-01-08T18:29:33.146Z,99524.94
2023-01-08T18:32:01.011Z,99509.56
2023-01-08T18:34:28.064Z,99515.53
2023-01-08T18:36:55.186Z,99508.69
2023-01-08T18:39:22.729Z,99515.53
2023-01-08T18:42:08.636Z,99511.28
2023-01-08T18:44:35.682Z,99506.09
2023-01-08T18:47:02.843Z,99518.94
2023-01-08T18:49:29.885Z,99524.06
2023-01-08T18:51:57.084Z,99513.81
2023-01-08T18:54:24.163Z,99515.53
2023-01-08T18:56:51.603Z,99518.94
2023-01-08T18:59:19.003Z,99511.25
2023-01-08T19:01:46.204Z,99515.50
2023-01-08T19:04:19.417Z,99517.22
2023-01-08T19:06:47.048Z,99507.00
2023-01-08T19:09:15.862Z,99509.53
2023-01-08T19:11:43.075Z,99505.25
2023-01-08T19:14:12.389Z,99510.38
2023-01-08T19:16:40.265Z,99503.56
2023-01-08T19:19:07.432Z,99509.56
2023-01-08T19:21:34.528Z,99486.47
2023-01-08T19:24:01.637Z,99504.44
2023-01-08T19:26:28.756Z,99493.31
2023-01-08T19:28:56.147Z,99505.25
2023-01-08T19:31:23.279Z,99499.28
2023-01-08T19:33:50.452Z,99505.28
2023-01-08T19:36:19.764Z,99518.94
2023-01-08T19:38:47.098Z,99508.69
2023-01-08T19:41:33.284Z,99521.47
2023-01-08T19:44:00.665Z,99518.91
2023-01-08T19:46:28.424Z,99523.19
2023-01-08T19:49:00.076Z,99519.78
2023-01-08T19:51:29.575Z,99506.97
2023-01-08T19:53:57.609Z,99512.06
2023-01-08T19:56:24.813Z,99489.88
2023-01-08T19:58:51.931Z,99492.47
2023-01-08T20:01:25.267Z,99473.66
2023-01-08T20:03:53.151Z,99495.00
2023-01-08T20:06:22.857Z,99491.63
2023-01-08T20:08:53.363Z,99498.44
2023-01-08T20:11:22.581Z,99487.31
2023-01-08T20:13:50.517Z,99500.13
2023-01-08T20:16:19.555Z,99479.63
2023-01-08T20:18:46.712Z,99484.75
2023-01-08T20:21:21.925Z,99477.06
2023-01-08T20:23:54.046Z,99465.97
2023-01-08T20:26:21.160Z,99452.31
2023-01-08T20:28:49.485Z,99441.22
2023-01-08T20:31:18.990Z,99442.09
2023-01-08T20:33:47.088Z,99444.66
2023-01-08T20:36:17.222Z,99447.22
2023-01-08T20:38:45.505Z,99445.50
2023-01-08T20:41:13.006Z,99442.09
2023-01-08T20:43:40.522Z,99426.69
2023-01-08T20:46:14.137Z,99417.31
2023-01-08T20:48:47.797Z,99414.75
2023-01-08T20:51:16.473Z,99407.94
2023-01-08T20:53:43.823Z,99411.34
2023-01-08T20:56:13.473Z,99403.66
2023-01-08T20:58:42.930Z,99404.50
2023-01-08T21:01:17.478Z,99402.81
2023-01-08T21:03:45.390Z,99403.66
2023-01-08T21:06:18.861Z,99384.91
2023-01-08T21:08:47.541Z,99383.19
2023-01-08T21:11:15.871Z,99372.94
2023-01-08T21:13:43.252Z,99364.41
2023-01-08T21:16:16.435Z,99377.22
2023-01-08T21:18:47.610Z,99392.56
2023-01-08T21:21:17.993Z,99367.81
2023-01-08T21:23:46.951Z,99372.94
2023-01-08T21:26:15.320Z,99366.97
2023-01-08T21:28:43.192Z,99370.38
2023-01-08T21:31:11.980Z,99363.56
2023-01-08T21:33:39.680Z,99355.84
2023-01-08T21:36:12.642Z,99355.84
2023-01-08T21:38:40.280Z,99346.47
2023-01-08T21:41:09.887Z,99343.91
2023-01-08T21:43:55.506Z,99345.63
2023-01-08T21:46:28.736Z,99333.69
2023-01-08T21:48:55.795Z,99327.69
2023-01-08T21:51:41.642Z,99336.22
2023-01-08T21:54:08.719Z,99339.66
2023-01-08T21:56:35.915Z,99331.94
2023-01-08T21:59:02.937Z,99324.25
2023-01-08T22:01:30.096Z,99322.56
2023-01-08T22:03:57.300Z,99320.03
2023-01-08T22:06:24.411Z,99329.38
2023-01-08T22:08:54.580Z,99329.38
2023-01-08T22:11:22.740Z,99331.09
2023-01-08T22:13:49.790Z,99325.16
2023-01-08T22:16:16.998Z,99296.94
2023-01-08T22:18:44.160Z,99317.44
2023-01-08T22:21:13.325Z,99326.00
2023-01-08T22:23:40.632Z,99325.16
2023-01-08T22:26:10.587Z,99324.25
2023-01-08T22:28:41.329Z,99315.72
2023-01-08T22:31:13.675Z,99324.25
2023-01-08T22:33:41.607Z,99323.41
2023-01-08T22:36:11.462Z,99321.72
2023-01-08T22:38:38.887Z,99325.97
2023-01-08T22:41:20.227Z,99310.63
2023-01-08T22:43:47.962Z,99303.78
2023-01-08T22:46:16.648Z,99295.25
2023-01-08T22:48:44.281Z,99284.19
2023-01-08T22:51:11.415Z,99291.00
2023-01-08T22:53:39.154Z,99285.84
2023-01-08T22:56:12.387Z,99285.00
2023-01-08T22:58:41.402Z,99278.19
2023-01-08T23:01:23.191Z,99289.28
2023-01-08T23:03:58.382Z,99284.16
2023-01-08T23:06:27.949Z,99271.34
2023-01-08T23:08:56.060Z,99279.06
2023-01-08T23:11:24.690Z,99283.31
2023-01-08T23:13:52.335Z,99293.56
2023-01-08T23:16:24.247Z,99296.13
2023-01-08T23:18:52.258Z,99289.25
2023-01-08T23:21:22.165Z,99280.75
2023-01-08T23:23:50.252Z,99269.66
2023-01-08T23:26:23.764Z,99267.97
2023-01-08T23:28:52.533Z,99259.44
2023-01-08T23:31:25.448Z,99266.28
2023-01-08T23:33:53.219Z,99266.28
2023-01-08T23:36:21.592Z,99273.94
2023-01-08T23:38:50.751Z,99268.81
2023-01-08T23:41:18.458Z,99270.53
2023-01-08T23:43:46.280Z,99274.78
2023-01-08T23:46:13.905Z,99266.25
2023-01-08T23:48:41.285Z,99254.31
2023-01-08T23:51:08.884Z,99261.97
2023-01-08T23:53:36.101Z,99247.50
2023-01-08T23:56:03.502Z,99249.19
2023-01-08T23:58:30.631Z,99248.34
